createdAt,value
2022-11-16T00:01:54.687Z,99.28
2022-11-16T00:04:22.148Z,100.28
2022-11-16T00:06:50.005Z,99.88
2022-11-16T00:09:17.378Z,90.65
2022-11-16T00:11:45.135Z,88.95
2022-11-16T00:14:38.490Z,83.13
2022-11-16T00:17:06.133Z,81.78
2022-11-16T00:19:33.524Z,77.60
2022-11-16T00:22:01.222Z,76.82
2022-11-16T00:24:28.630Z,81.55
2022-11-16T00:26:56.301Z,90.30
2022-11-16T00:29:24.617Z,90.07
2022-11-16T00:31:52.594Z,92.65
2022-11-16T00:34:20.283Z,98.15
2022-11-16T00:36:48.259Z,99.07
2022-11-16T00:39:16.531Z,95.85
2022-11-16T00:41:44.577Z,95.40
2022-11-16T00:44:12.245Z,93.38
2022-11-16T00:46:40.290Z,94.53
2022-11-16T00:49:07.819Z,86.22
2022-11-16T00:51:35.911Z,88.65
2022-11-16T00:54:03.810Z,86.50
2022-11-16T00:56:31.517Z,91.75
2022-11-16T00:58:58.935Z,90.47
2022-11-16T01:01:26.783Z,94.63
2022-11-16T01:03:54.259Z,96.60
2022-11-16T01:06:22.028Z,87.82
2022-11-16T01:08:49.704Z,83.20
2022-11-16T01:11:18.134Z,86.93
2022-11-16T01:13:45.483Z,95.07
2022-11-16T01:16:14.202Z,85.38
2022-11-16T01:18:41.670Z,82.57
2022-11-16T01:21:09.648Z,93.55
2022-11-16T01:23:37.025Z,83.80
2022-11-16T01:26:04.906Z,95.03
2022-11-16T01:28:32.783Z,83.82
2022-11-16T01:31:00.703Z,87.65
2022-11-16T01:33:40.289Z,88.38
2022-11-16T01:36:13.223Z,93.07
2022-11-16T01:38:44.467Z,82.35
2022-11-16T01:41:13.569Z,80.20
2022-11-16T01:44:01.574Z,87.43
2022-11-16T01:46:29.777Z,87.43
2022-11-16T01:49:26.571Z,83.05
2022-11-16T01:51:57.167Z,79.57
2022-11-16T01:54:24.771Z,84.28
2022-11-16T01:56:52.929Z,84.65
2022-11-16T01:59:20.351Z,83.00
2022-11-16T02:01:48.025Z,93.90
2022-11-16T02:04:15.471Z,82.75
2022-11-16T02:10:24.825Z,89.20
2022-11-16T02:12:52.497Z,82.43
2022-11-16T02:15:29.465Z,85.55
2022-11-16T02:18:02.864Z,86.05
2022-11-16T02:20:48.929Z,80.82
2022-11-16T02:23:16.618Z,88.50
2022-11-16T02:25:43.967Z,75.63
2022-11-16T02:28:33.592Z,79.68
2022-11-16T02:31:03.826Z,75.72
2022-11-16T02:33:35.233Z,76.63
2022-11-16T02:36:04.729Z,73.93
2022-11-16T02:42:05.922Z,73.38
2022-11-16T02:44:35.259Z,72.18
2022-11-16T02:47:05.100Z,79.57
2022-11-16T02:49:38.207Z,79.28
2022-11-16T02:52:05.670Z,73.88
2022-11-16T02:54:33.352Z,68.60
2022-11-16T02:57:03.449Z,72.43
2022-11-16T02:59:33.559Z,73.40
2022-11-16T03:02:21.218Z,72.78
2022-11-16T03:04:50.544Z,76.95
2022-11-16T03:07:20.329Z,73.53
2022-11-16T03:09:48.928Z,71.82
2022-11-16T03:12:18.520Z,70.82
2022-11-16T03:14:49.252Z,71.93
2022-11-16T03:17:25.538Z,83.28
2022-11-16T03:20:11.837Z,82.25
2022-11-16T03:22:41.963Z,78.30
2022-11-16T03:25:11.354Z,76.13
2022-11-16T03:27:38.681Z,78.85
2022-11-16T03:30:06.350Z,85.47
2022-11-16T03:32:36.677Z,84.63
2022-11-16T03:35:08.180Z,89.35
2022-11-16T03:37:36.132Z,94.95
2022-11-16T03:40:04.637Z,84.15
2022-11-16T03:46:04.538Z,90.85
2022-11-16T03:48:34.371Z,91.93
2022-11-16T03:51:02.088Z,80.88
2022-11-16T03:53:29.807Z,68.95
2022-11-16T03:55:57.154Z,81.57
2022-11-16T03:58:24.806Z,80.43
2022-11-16T04:00:52.926Z,72.22
2022-11-16T04:03:21.185Z,78.97
2022-11-16T04:05:49.101Z,79.47
2022-11-16T04:08:17.517Z,82.10
2022-11-16T04:10:45.183Z,72.43
2022-11-16T04:13:13.828Z,67.32
2022-11-16T04:15:41.217Z,75.95
2022-11-16T04:18:10.477Z,75.15
2022-11-16T04:20:37.877Z,75.85
2022-11-16T04:23:10.720Z,76.28
2022-11-16T04:25:39.816Z,78.32
2022-11-16T04:28:07.719Z,68.88
2022-11-16T04:30:35.129Z,61.35
2022-11-16T04:33:02.800Z,53.25
2022-11-16T04:35:30.201Z,62.22
2022-11-16T04:37:59.194Z,62.20
2022-11-16T04:40:27.845Z,55.85
2022-11-16T04:42:56.930Z,60.35
2022-11-16T04:45:24.831Z,52.15
2022-11-16T04:47:52.925Z,58.85
2022-11-16T04:50:20.489Z,56.83
2022-11-16T04:52:48.185Z,55.55
2022-11-16T04:55:15.547Z,61.80
2022-11-16T04:57:43.200Z,54.38
2022-11-16T05:00:10.873Z,57.00
2022-11-16T05:02:38.584Z,63.08
2022-11-16T05:05:06.343Z,64.30
2022-11-16T05:07:34.028Z,59.47
2022-11-16T05:10:04.602Z,59.25
2022-11-16T05:12:32.689Z,59.47
2022-11-16T05:15:00.134Z,61.70
2022-11-16T05:20:59.867Z,67.93
2022-11-16T05:23:27.535Z,67.85
2022-11-16T05:25:54.877Z,70.82
2022-11-16T05:28:22.566Z,63.10
2022-11-16T05:30:50.004Z,65.95
2022-11-16T05:33:17.674Z,68.40
2022-11-16T05:35:45.060Z,57.17
2022-11-16T05:38:12.804Z,59.15
2022-11-16T05:40:40.240Z,62.33
2022-11-16T05:43:07.902Z,58.90
2022-11-16T05:45:35.315Z,60.67
2022-11-16T05:48:03.033Z,56.83
2022-11-16T05:50:30.415Z,62.28
2022-11-16T05:52:58.139Z,60.10
2022-11-16T05:55:25.534Z,62.67
2022-11-16T05:57:53.160Z,61.25
2022-11-16T06:00:20.605Z,58.25
2022-11-16T06:02:48.445Z,49.22
2022-11-16T06:05:15.874Z,57.58
2022-11-16T06:07:43.631Z,51.42
2022-11-16T06:10:11.030Z,52.42
2022-11-16T06:12:38.739Z,49.35
2022-11-16T06:15:06.321Z,52.65
2022-11-16T06:17:33.995Z,52.97
2022-11-16T06:20:01.443Z,54.90
2022-11-16T06:22:29.186Z,45.40
2022-11-16T06:24:56.571Z,51.17
2022-11-16T06:27:24.299Z,55.75
2022-11-16T06:29:51.647Z,55.67
2022-11-16T06:32:19.937Z,61.10
2022-11-16T06:38:09.813Z,52.42
2022-11-16T06:40:37.700Z,60.35
2022-11-16T06:43:05.086Z,59.50
2022-11-16T06:45:32.723Z,53.05
2022-11-16T06:48:00.098Z,52.03
2022-11-16T06:50:27.731Z,44.95
2022-11-16T06:52:55.134Z,65.13
2022-11-16T06:55:22.818Z,57.30
2022-11-16T06:57:50.136Z,59.38
2022-11-16T07:00:19.531Z,61.00
2022-11-16T07:06:04.909Z,54.20
2022-11-16T07:08:32.691Z,93.27
2022-11-16T07:11:05.359Z,61.50
2022-11-16T07:13:33.424Z,49.75
2022-11-16T07:16:04.978Z,61.03
2022-11-16T07:18:36.176Z,58.63
2022-11-16T07:21:06.967Z,53.70
2022-11-16T07:23:34.671Z,56.65
2022-11-16T07:26:03.513Z,54.38
2022-11-16T07:28:31.137Z,49.05
2022-11-16T07:34:23.023Z,58.60
2022-11-16T07:36:50.684Z,63.47
2022-11-16T07:39:18.080Z,58.15
2022-11-16T07:45:00.592Z,50.00
2022-11-16T07:47:28.323Z,58.65
2022-11-16T07:49:55.783Z,55.35
2022-11-16T07:52:23.462Z,63.22
2022-11-16T07:54:50.858Z,54.72
2022-11-16T07:57:18.515Z,53.70
2022-11-16T07:59:45.957Z,56.65
2022-11-16T08:02:13.698Z,47.22
2022-11-16T08:04:41.143Z,59.53
2022-11-16T08:07:09.007Z,59.58
2022-11-16T08:09:36.544Z,58.78
2022-11-16T08:12:04.394Z,60.00
2022-11-16T08:14:31.752Z,51.85
2022-11-16T08:16:59.506Z,63.47
2022-11-16T08:19:26.995Z,57.22
2022-11-16T08:21:54.737Z,48.65
2022-11-16T08:24:22.098Z,47.13
2022-11-16T08:26:49.811Z,54.35
2022-11-16T08:29:17.365Z,63.63
2022-11-16T08:31:45.036Z,57.00
2022-11-16T08:34:12.434Z,58.80
2022-11-16T08:36:40.092Z,59.60
2022-11-16T08:39:07.549Z,62.58
2022-11-16T08:41:35.280Z,65.68
2022-11-16T08:44:02.683Z,53.88
2022-11-16T08:46:30.408Z,56.80
2022-11-16T08:48:57.993Z,58.85
2022-11-16T08:51:25.931Z,59.53
2022-11-16T08:53:56.909Z,53.00
2022-11-16T08:56:24.828Z,50.47
2022-11-16T08:58:58.169Z,53.28
2022-11-16T09:01:28.114Z,62.45
2022-11-16T09:03:55.719Z,51.97
2022-11-16T09:06:24.409Z,52.15
2022-11-16T09:08:52.198Z,39.45
2022-11-16T09:11:20.992Z,57.90
2022-11-16T09:13:49.121Z,41.28
2022-11-16T09:16:17.452Z,46.75
2022-11-16T09:18:44.864Z,44.40
2022-11-16T09:21:16.111Z,49.50
2022-11-16T09:23:43.501Z,50.53
2022-11-16T09:26:11.228Z,45.38
2022-11-16T09:28:38.881Z,48.70
2022-11-16T09:31:06.558Z,40.40
2022-11-16T09:33:34.321Z,48.60
2022-11-16T09:36:03.307Z,60.65
2022-11-16T09:38:54.283Z,50.78
2022-11-16T09:41:24.990Z,57.25
2022-11-16T09:44:04.600Z,61.15
2022-11-16T09:46:35.169Z,52.08
2022-11-16T09:49:03.374Z,46.40
2022-11-16T09:51:33.213Z,44.65
2022-11-16T09:54:05.181Z,40.53
2022-11-16T09:59:03.479Z,44.05
2022-11-16T10:01:31.321Z,51.40
2022-11-16T10:04:18.998Z,49.65
2022-11-16T10:06:53.218Z,42.33
2022-11-16T10:09:20.695Z,44.75
2022-11-16T10:11:48.522Z,47.95
2022-11-16T10:14:42.106Z,46.53
2022-11-16T10:17:15.584Z,33.38
2022-11-16T10:19:56.917Z,42.92
2022-11-16T10:22:43.473Z,50.10
2022-11-16T10:25:23.883Z,34.97
2022-11-16T10:28:09.722Z,46.13
2022-11-16T10:30:41.444Z,44.70
2022-11-16T10:33:14.558Z,40.72
2022-11-16T10:35:48.088Z,48.42
2022-11-16T10:38:17.283Z,46.42
2022-11-16T10:40:51.074Z,40.47
2022-11-16T10:43:20.779Z,42.65
2022-11-16T10:45:59.710Z,48.00
2022-11-16T10:48:53.390Z,44.08
2022-11-16T10:51:20.836Z,47.78
2022-11-16T10:53:48.606Z,38.08
2022-11-16T10:56:16.028Z,63.83
2022-11-16T10:58:55.672Z,51.47
2022-11-16T11:01:31.191Z,42.50
2022-11-16T11:04:17.675Z,35.30
2022-11-16T11:06:46.171Z,41.65
2022-11-16T11:09:25.287Z,42.63
2022-11-16T11:11:59.111Z,44.53
2022-11-16T11:17:50.526Z,38.53
2022-11-16T11:23:23.926Z,41.70
2022-11-16T11:25:55.826Z,44.03
2022-11-16T11:28:27.782Z,41.50
2022-11-16T11:30:55.537Z,43.35
2022-11-16T11:33:24.402Z,43.63
2022-11-16T11:36:11.240Z,48.53
2022-11-16T11:38:55.175Z,39.78
2022-11-16T11:41:23.899Z,36.33
2022-11-16T11:44:04.896Z,41.90
2022-11-16T11:47:28.629Z,43.03
2022-11-16T11:49:33.304Z,41.35
2022-11-16T11:52:05.121Z,32.78
2022-11-16T11:54:34.782Z,37.78
2022-11-16T11:57:03.214Z,34.22
2022-11-16T11:59:30.625Z,41.17
2022-11-16T12:01:58.306Z,36.67
2022-11-16T12:08:09.822Z,35.13
2022-11-16T12:10:43.874Z,38.28
2022-11-16T12:13:23.172Z,39.40
2022-11-16T12:16:09.467Z,43.30
2022-11-16T12:18:56.381Z,39.75
2022-11-16T12:21:33.160Z,34.35
2022-11-16T12:24:18.756Z,33.85
2022-11-16T12:27:09.386Z,32.92
2022-11-16T12:29:45.997Z,29.75
2022-11-16T12:32:22.570Z,29.58
2022-11-16T12:35:08.048Z,34.05
2022-11-16T12:37:41.363Z,37.25
2022-11-16T12:40:17.920Z,32.42
2022-11-16T12:42:49.646Z,31.00
2022-11-16T12:45:17.180Z,43.70
2022-11-16T12:47:56.330Z,28.10
2022-11-16T12:50:27.143Z,31.88
2022-11-16T12:52:54.880Z,27.05
2022-11-16T12:55:48.563Z,31.55
2022-11-16T12:58:36.745Z,27.45
2022-11-16T13:01:06.960Z,32.40
2022-11-16T13:03:37.824Z,29.65
2022-11-16T13:06:08.377Z,28.40
2022-11-16T13:08:36.184Z,32.00
2022-11-16T13:11:14.050Z,28.17
2022-11-16T13:13:45.724Z,35.10
2022-11-16T13:16:15.862Z,39.15
2022-11-16T13:18:44.122Z,30.40
2022-11-16T13:21:18.426Z,33.20
2022-11-16T13:23:54.996Z,28.83
2022-11-16T13:26:40.776Z,36.92
2022-11-16T13:29:14.317Z,33.95
2022-11-16T13:31:48.183Z,35.28
2022-11-16T13:34:20.469Z,32.45
2022-11-16T13:36:47.951Z,33.47
2022-11-16T13:39:21.860Z,36.72
2022-11-16T13:41:51.523Z,35.58
2022-11-16T13:44:19.239Z,33.22
2022-11-16T13:46:55.921Z,35.60
2022-11-16T13:49:29.420Z,40.63
2022-11-16T13:52:21.336Z,37.63
2022-11-16T13:54:50.340Z,32.33
2022-11-16T13:57:20.857Z,35.05
2022-11-16T13:59:49.335Z,30.77
2022-11-16T14:02:33.503Z,33.67
2022-11-16T14:05:03.478Z,37.72
2022-11-16T14:07:32.710Z,38.83
2022-11-16T14:10:00.976Z,27.48
2022-11-16T14:12:46.831Z,31.63
2022-11-16T14:15:21.704Z,31.83
2022-11-16T14:17:49.981Z,27.08
2022-11-16T14:20:46.819Z,27.75
2022-11-16T14:23:14.179Z,36.22
2022-11-16T14:26:00.249Z,29.73
2022-11-16T14:28:43.044Z,29.02
2022-11-16T14:31:29.249Z,27.00
2022-11-16T14:33:58.663Z,29.73
2022-11-16T14:36:46.191Z,29.77
2022-11-16T14:39:35.483Z,30.45
2022-11-16T14:42:14.882Z,26.58
2022-11-16T14:44:42.358Z,31.05
2022-11-16T14:47:39.233Z,30.52
2022-11-16T14:50:17.339Z,24.98
2022-11-16T14:52:46.304Z,26.27
2022-11-16T14:55:21.272Z,23.13
2022-11-16T14:57:49.125Z,27.55
2022-11-16T15:00:19.566Z,25.15
2022-11-16T15:02:51.743Z,28.73
2022-11-16T15:05:21.033Z,30.52
2022-11-16T15:07:50.801Z,28.15
2022-11-16T15:10:23.110Z,32.88
2022-11-16T15:12:51.567Z,28.35
2022-11-16T15:15:21.618Z,39.67
2022-11-16T15:18:11.423Z,29.63
2022-11-16T15:20:46.908Z,25.65
2022-11-16T15:23:15.287Z,25.75
2022-11-16T15:25:44.121Z,20.48
2022-11-16T15:28:22.012Z,23.15
2022-11-16T15:30:53.466Z,22.33
2022-11-16T15:33:26.947Z,19.95
2022-11-16T15:35:54.888Z,17.63
2022-11-16T15:38:30.480Z,18.17
2022-11-16T15:40:59.267Z,15.25
2022-11-16T15:43:31.494Z,16.98
2022-11-16T15:45:59.898Z,17.52
2022-11-16T15:48:28.573Z,17.40
2022-11-16T15:51:06.815Z,20.42
2022-11-16T15:53:37.454Z,14.30
2022-11-16T15:58:54.999Z,14.02
2022-11-16T16:01:22.918Z,12.07
2022-11-16T16:04:02.557Z,16.75
2022-11-16T16:06:43.335Z,14.57
2022-11-16T16:09:14.796Z,17.33
2022-11-16T16:11:42.191Z,18.20
2022-11-16T16:14:09.916Z,16.95
2022-11-16T16:16:37.927Z,14.48
2022-11-16T16:19:24.080Z,16.20
2022-11-16T16:21:53.515Z,15.80
2022-11-16T16:27:39.140Z,21.15
2022-11-16T16:30:07.386Z,22.77
2022-11-16T16:32:36.350Z,26.88
2022-11-16T16:35:06.405Z,23.27
2022-11-16T16:37:34.431Z,21.40
2022-11-16T16:40:02.307Z,21.80
2022-11-16T16:42:29.706Z,17.75
2022-11-16T16:44:58.810Z,16.63
2022-11-16T16:47:26.166Z,21.95
2022-11-16T16:49:53.981Z,17.52
2022-11-16T16:55:37.940Z,17.58
2022-11-16T16:58:05.718Z,17.27
2022-11-16T17:00:33.606Z,16.58
2022-11-16T17:03:01.246Z,16.73
2022-11-16T17:05:29.724Z,19.35
2022-11-16T17:07:57.186Z,19.95
2022-11-16T17:10:24.986Z,18.92
2022-11-16T17:12:55.578Z,16.48
2022-11-16T17:15:23.604Z,14.35
2022-11-16T17:17:51.002Z,19.45
2022-11-16T17:20:18.779Z,17.60
2022-11-16T17:22:46.249Z,16.48
2022-11-16T17:25:13.896Z,22.58
2022-11-16T17:27:41.289Z,19.23
2022-11-16T17:30:09.381Z,9.98
2022-11-16T17:32:36.766Z,18.40
2022-11-16T17:35:04.599Z,19.00
2022-11-16T17:37:31.946Z,17.85
2022-11-16T17:39:59.592Z,13.73
2022-11-16T17:42:27.026Z,18.63
2022-11-16T17:44:54.676Z,14.43
2022-11-16T17:47:22.086Z,17.05
2022-11-16T17:49:49.801Z,10.82
2022-11-16T17:52:17.213Z,12.05
2022-11-16T17:54:44.962Z,11.00
2022-11-16T17:57:12.328Z,12.05
2022-11-16T17:59:39.963Z,9.13
2022-11-16T18:05:26.468Z,10.70
2022-11-16T18:07:53.909Z,18.98
2022-11-16T18:10:21.597Z,8.23
2022-11-16T18:12:48.980Z,9.27
2022-11-16T18:15:31.847Z,10.48
2022-11-16T18:17:59.219Z,10.27
2022-11-16T18:20:26.895Z,11.63
2022-11-16T18:22:54.393Z,7.97
2022-11-16T18:25:22.817Z,12.15
2022-11-16T18:27:52.826Z,12.20
2022-11-16T18:30:21.267Z,14.25
2022-11-16T18:32:49.391Z,13.80
2022-11-16T18:38:31.039Z,13.20
2022-11-16T18:41:14.772Z,11.80
2022-11-16T18:43:47.248Z,10.10
2022-11-16T18:46:14.974Z,10.63
2022-11-16T18:48:42.395Z,11.45
2022-11-16T18:51:10.449Z,10.98
2022-11-16T18:53:38.240Z,11.23
2022-11-16T18:56:06.346Z,11.38
2022-11-16T18:58:50.939Z,9.32
2022-11-16T19:01:21.080Z,10.13
2022-11-16T19:03:50.670Z,10.80
2022-11-16T19:06:18.749Z,9.75
2022-11-16T19:08:52.115Z,11.38
2022-11-16T19:14:26.890Z,10.25
2022-11-16T19:20:20.273Z,9.57
2022-11-16T19:22:48.011Z,12.18
2022-11-16T19:25:15.406Z,10.35
2022-11-16T19:27:43.140Z,13.30
2022-11-16T19:30:10.892Z,9.88
2022-11-16T19:32:38.585Z,13.45
2022-11-16T19:35:08.730Z,11.07
2022-11-16T19:37:40.127Z,10.10
2022-11-16T19:40:07.930Z,12.65
2022-11-16T19:42:35.655Z,9.90
2022-11-16T19:45:03.047Z,11.55
2022-11-16T19:47:30.665Z,11.80
2022-11-16T19:49:58.055Z,10.30
2022-11-16T19:52:25.798Z,10.77
2022-11-16T19:54:53.193Z,10.73
2022-11-16T19:57:20.900Z,12.48
2022-11-16T19:59:48.322Z,14.20
2022-11-16T20:02:16.028Z,11.18
2022-11-16T20:04:43.488Z,17.67
2022-11-16T20:07:11.247Z,12.82
2022-11-16T20:09:38.642Z,16.83
2022-11-16T20:12:06.377Z,14.73
2022-11-16T20:14:33.947Z,16.40
2022-11-16T20:17:01.908Z,15.55
2022-11-16T20:19:29.401Z,16.70
2022-11-16T20:21:57.158Z,16.27
2022-11-16T20:24:24.630Z,15.95
2022-11-16T20:27:10.507Z,15.60
2022-11-16T20:29:37.913Z,15.40
2022-11-16T20:32:05.702Z,15.70
2022-11-16T20:34:46.580Z,15.60
2022-11-16T20:40:19.266Z,16.77
2022-11-16T20:43:03.639Z,12.88
2022-11-16T20:45:46.108Z,14.75
2022-11-16T20:48:20.258Z,10.18
2022-11-16T20:50:51.145Z,15.85
2022-11-16T20:53:18.845Z,15.35
2022-11-16T20:59:18.333Z,11.20
2022-11-16T21:05:28.241Z,11.27
2022-11-16T21:07:58.743Z,12.32
2022-11-16T21:10:29.937Z,11.48
2022-11-16T21:12:57.709Z,12.23
2022-11-16T21:15:25.085Z,12.55
2022-11-16T21:17:52.800Z,12.27
2022-11-16T21:20:27.492Z,11.70
2022-11-16T21:22:55.840Z,11.20
2022-11-16T21:25:23.261Z,13.70
2022-11-16T21:27:51.013Z,11.55
2022-11-16T21:30:18.484Z,11.80
2022-11-16T21:32:46.158Z,11.10
2022-11-16T21:35:13.596Z,14.02
2022-11-16T21:37:41.270Z,10.90
2022-11-16T21:40:09.206Z,11.35
2022-11-16T21:42:36.917Z,11.68
2022-11-16T21:45:06.391Z,10.77
2022-11-16T21:47:34.169Z,13.07
2022-11-16T21:50:30.716Z,13.38
2022-11-16T21:53:16.300Z,11.10
2022-11-16T21:55:48.664Z,12.10
2022-11-16T21:58:16.372Z,12.25
2022-11-16T22:00:43.826Z,13.18
2022-11-16T22:03:11.574Z,12.23
2022-11-16T22:12:23.307Z,14.90
2022-11-16T22:18:19.748Z,14.33
2022-11-16T22:20:57.139Z,12.55
2022-11-16T22:23:32.852Z,12.88
2022-11-16T22:26:10.604Z,8.90
2022-11-16T22:28:43.375Z,15.85
2022-11-16T22:31:12.416Z,13.05
2022-11-16T22:33:40.402Z,13.77
2022-11-16T22:36:11.687Z,13.80
2022-11-16T22:38:39.107Z,9.85
2022-11-16T22:41:06.827Z,11.75
2022-11-16T22:47:04.939Z,15.38
2022-11-16T22:49:32.392Z,11.70
2022-11-16T22:52:00.044Z,9.55
2022-11-16T22:54:28.785Z,11.75
2022-11-16T22:56:56.887Z,12.13
2022-11-16T22:59:24.360Z,13.10
2022-11-16T23:02:06.577Z,12.32
2022-11-16T23:04:34.470Z,13.18
2022-11-16T23:07:02.350Z,13.00
2022-11-16T23:09:29.833Z,11.25
2022-11-16T23:11:57.438Z,12.80
2022-11-16T23:14:24.776Z,9.73
2022-11-16T23:16:52.150Z,11.10
2022-11-16T23:19:20.442Z,13.27
2022-11-16T23:21:47.811Z,11.57
2022-11-16T23:24:15.442Z,13.27
2022-11-16T23:26:42.873Z,15.18
2022-11-16T23:29:11.383Z,12.63
2022-11-16T23:31:38.802Z,13.82
2022-11-16T23:34:06.460Z,14.00
2022-11-16T23:36:33.911Z,12.95
2022-11-16T23:39:01.577Z,17.52
2022-11-16T23:41:29.039Z,16.60
2022-11-16T23:43:56.696Z,16.05
2022-11-16T23:46:24.970Z,17.83
2022-11-16T23:48:52.655Z,21.10
2022-11-16T23:51:20.349Z,13.48
2022-11-16T23:53:48.063Z,14.82
2022-11-16T23:56:15.425Z,17.85
2022-11-16T23:58:43.126Z,18.90
